Time;durP1;ratioP1;P1;durP2;ratioP2;P2;SDS_P1;SDS_P2;PMS_P1;PMS_P2;Temp;Humidity;BMP_temperature;BMP_pressure;BME280_temperature;BME280_humidity;BME280_pressure;Samples;Min_cycle;Max_cycle;Signal;HPM_P1;HPM_P2
2021/04/22 00:02:13;;;;;;;12.80;10.48;;;;;;;9.11;66.75;99326.69;1716050;83;21433;-76
2021/04/22 00:04:42;;;;;;;15.20;10.40;;;;;;;9.04;66.89;99333.38;1724194;83;21735;-77
2021/04/22 00:07:10;;;;;;;12.20;9.20;;;;;;;8.99;67.00;99336.33;1696932;84;21191;-76
2021/04/22 00:09:38;;;;;;;13.70;9.80;;;;;;;9.07;66.84;99330.99;1703081;83;21317;-76
2021/04/22 00:12:08;;;;;;;14.33;10.55;;;;;;;9.03;67.01;99335.64;1707982;83;21644;-77
2021/04/22 00:14:35;;;;;;;15.00;10.82;;;;;;;8.94;67.18;99333.17;1730692;83;21172;-76
2021/04/22 00:17:07;;;;;;;13.50;10.55;;;;;;;8.87;67.31;99328.43;1751859;80;21183;-77
2021/04/22 00:19:35;;;;;;;11.93;9.55;;;;;;;8.83;67.36;99333.90;1751444;81;21611;-76
2021/04/22 00:22:04;;;;;;;14.40;10.38;;;;;;;8.92;67.18;99337.70;1752523;82;21605;-76
2021/04/22 00:24:31;;;;;;;12.75;10.28;;;;;;;8.86;67.28;99335.48;1753657;81;21301;-76
2021/04/22 00:26:58;;;;;;;14.20;10.30;;;;;;;8.77;67.44;99342.27;1752669;80;21150;-76
2021/04/22 00:29:26;;;;;;;12.78;9.50;;;;;;;8.72;67.59;99338.24;1753990;80;21179;-75
2021/04/22 00:31:54;;;;;;;13.85;9.78;;;;;;;8.72;67.63;99336.47;1768391;80;21131;-75
2021/04/22 00:34:21;;;;;;;10.90;9.43;;;;;;;8.80;67.45;99328.86;1778101;80;21167;-75
2021/04/22 00:36:50;;;;;;;14.98;10.75;;;;;;;8.75;67.52;99328.82;1752971;82;21618;-76
2021/04/22 00:39:17;;;;;;;16.55;11.35;;;;;;;8.67;67.74;99330.64;1752160;82;21152;-76
2021/04/22 00:41:46;;;;;;;14.38;9.38;;;;;;;8.60;67.93;99341.26;1754132;81;21237;-76
2021/04/22 00:44:15;;;;;;;14.98;9.75;;;;;;;8.61;67.92;99338.52;1754127;82;21155;-75
2021/04/22 00:46:42;;;;;;;14.05;10.35;;;;;;;8.71;67.74;99336.55;1757897;80;21583;-76
2021/04/22 00:49:09;;;;;;;15.13;11.20;;;;;;;8.65;67.86;99345.73;1782147;80;21164;-76
2021/04/22 00:51:37;;;;;;;14.83;10.63;;;;;;;8.57;67.99;99352.86;1703330;83;21136;-76
2021/04/22 00:54:05;;;;;;;12.00;9.60;;;;;;;8.49;68.15;99348.11;1690484;85;21147;-76
2021/04/22 00:56:34;;;;;;;13.18;10.72;;;;;;;8.54;68.08;99346.45;1690863;83;21186;-76
2021/04/22 00:59:01;;;;;;;13.43;10.70;;;;;;;8.57;67.94;99342.31;1754087;80;22212;-76
2021/04/22 01:01:28;;;;;;;14.00;10.60;;;;;;;8.47;68.13;99345.21;1767364;80;21314;-76
2021/04/22 01:03:55;;;;;;;13.95;10.38;;;;;;;8.40;68.26;99346.53;1693012;83;21635;-76
2021/04/22 01:06:23;;;;;;;14.87;9.93;;;;;;;8.32;68.45;99351.00;1769486;81;21207;-76
2021/04/22 01:08:52;;;;;;;14.13;10.28;;;;;;;8.42;68.27;99355.19;1769584;81;21647;-75
2021/04/22 01:11:19;;;;;;;13.48;10.93;;;;;;;8.39;68.36;99349.66;1691936;84;21192;-76
2021/04/22 01:13:47;;;;;;;13.53;10.85;;;;;;;8.30;68.51;99355.06;1759721;81;21139;-75
2021/04/22 01:16:14;;;;;;;12.90;10.53;;;;;;;8.20;68.64;99356.62;1756831;82;21135;-75
2021/04/22 01:18:41;;;;;;;12.73;10.68;;;;;;;8.19;68.76;99362.84;1757998;80;21282;-76
2021/04/22 01:21:24;;;;;;;14.65;11.05;;;;;;;8.30;68.53;99365.61;1729907;80;21619;-76
2021/04/22 01:23:52;;;;;;;14.05;10.82;;;;;;;8.24;68.63;99363.38;1754719;82;21279;-75
2021/04/22 01:26:21;;;;;;;13.62;10.23;;;;;;;8.12;68.83;99370.77;1756814;82;21170;-76
2021/04/22 01:28:50;;;;;;;16.00;10.70;;;;;;;8.05;69.04;99374.28;1756749;81;21707;-75
2021/04/22 01:31:22;;;;;;;14.25;10.48;;;;;;;8.07;69.04;99371.55;1757112;81;21183;-75
2021/04/22 01:33:49;;;;;;;15.58;10.32;;;;;;;8.15;68.84;99374.53;1756841;82;21151;-75
2021/04/22 01:36:17;;;;;;;15.40;11.35;;;;;;;8.08;69.01;99367.97;1756760;82;21159;-75
2021/04/22 01:38:44;;;;;;;16.37;11.00;;;;;;;8.00;69.21;99366.67;1757054;82;21724;-75
2021/04/22 01:41:13;;;;;;;14.47;10.70;;;;;;;7.94;69.34;99363.16;1765047;80;21174;-75
2021/04/22 01:43:43;;;;;;;13.70;10.98;;;;;;;7.99;69.26;99368.10;1707002;83;21619;-76
2021/04/22 01:46:10;;;;;;;19.25;11.93;;;;;;;8.06;69.10;99355.36;1695440;84;21175;-75
2021/04/22 01:48:39;;;;;;;15.60;12.35;;;;;;;7.99;69.25;99361.06;1695287;84;21286;-76
2021/04/22 01:51:08;;;;;;;18.42;12.73;;;;;;;7.92;69.44;99357.13;1717003;83;21624;-76
2021/04/22 01:53:42;;;;;;;16.80;11.97;;;;;;;7.86;69.58;99365.43;1733757;82;21338;-76
2021/04/22 01:56:10;;;;;;;16.30;12.07;;;;;;;7.93;69.52;99359.28;1722184;82;21156;-76
2021/04/22 01:58:37;;;;;;;15.35;11.68;;;;;;;8.01;69.34;99363.11;1721369;82;21167;-76
2021/04/22 02:01:05;;;;;;;16.12;12.07;;;;;;;7.94;69.47;99368.42;1721130;83;21273;-76
2021/04/22 02:03:33;;;;;;;13.72;11.15;;;;;;;7.86;69.64;99364.11;1720910;83;21131;-76
2021/04/22 02:06:05;;;;;;;13.05;9.95;;;;;;;7.80;69.78;99361.42;1721143;83;21202;-76
2021/04/22 02:08:33;;;;;;;15.50;11.43;;;;;;;7.87;69.67;99357.91;1722298;83;21588;-76
2021/04/22 02:11:02;;;;;;;13.60;10.78;;;;;;;7.91;69.54;99363.34;1723048;82;21366;-76
2021/04/22 02:13:30;;;;;;;16.90;12.15;;;;;;;7.82;69.69;99373.16;1723369;82;21603;-76
2021/04/22 02:15:57;;;;;;;17.42;10.78;;;;;;;7.73;69.87;99366.70;1723870;83;21179;-76
2021/04/22 02:18:25;;;;;;;17.67;12.65;;;;;;;7.70;69.93;99371.69;1734693;82;21156;-76
2021/04/22 02:20:56;;;;;;;20.55;15.78;;;;;;;7.77;69.84;99382.66;1690560;85;21306;-76
2021/04/22 02:23:24;;;;;;;18.52;14.75;;;;;;;7.69;70.03;99373.95;1717392;83;21211;-76
2021/04/22 02:25:52;;;;;;;33.45;14.03;;;;;;;7.59;70.26;99373.33;1724000;83;21587;-76
2021/04/22 02:28:20;;;;;;;20.37;11.20;;;;;;;7.53;70.45;99373.23;1723365;83;21321;-76
2021/04/22 02:30:47;;;;;;;13.83;11.53;;;;;;;7.64;70.32;99372.56;1723969;83;21698;-76
2021/04/22 02:33:16;;;;;;;14.63;11.45;;;;;;;7.62;70.40;99369.17;1711739;83;21143;-76
2021/04/22 02:35:48;;;;;;;14.83;10.60;;;;;;;7.54;70.61;99367.91;1723988;83;21163;-76
2021/04/22 02:38:16;;;;;;;14.63;10.10;;;;;;;7.48;70.79;99372.23;1724253;82;21305;-76
2021/04/22 02:40:46;;;;;;;23.60;10.68;;;;;;;7.55;70.75;99364.78;1705659;84;21212;-76
2021/04/22 02:43:17;;;;;;;15.20;11.83;;;;;;;7.62;70.68;99364.78;1711121;83;21646;-75
2021/04/22 02:45:53;;;;;;;16.48;11.00;;;;;;;7.55;70.81;99375.31;1723925;83;21171;-75
2021/04/22 02:48:23;;;;;;;12.95;9.70;;;;;;;7.48;70.98;99373.55;1721279;83;21313;-76
2021/04/22 02:50:55;;;;;;;13.93;10.70;;;;;;;7.51;70.91;99370.71;1709373;83;21737;-76
2021/04/22 02:53:23;;;;;;;13.58;10.68;;;;;;;7.62;70.71;99371.36;1705526;84;21668;-76
2021/04/22 02:55:51;;;;;;;13.72;11.48;;;;;;;7.59;70.77;99383.37;1723770;83;21183;-76
2021/04/22 02:58:26;;;;;;;15.43;11.18;;;;;;;7.51;70.91;99381.72;1723647;83;21782;-76
2021/04/22 03:00:54;;;;;;;14.97;11.33;;;;;;;7.55;70.70;99381.89;1724197;83;21298;-77
2021/04/22 03:03:21;;;;;;;15.10;10.80;;;;;;;7.55;70.70;99381.89;1724303;82;21820;-76
2021/04/22 03:05:49;;;;;;;14.90;11.80;;;;;;;7.58;70.65;99386.95;1723817;83;21158;-76
2021/04/22 03:08:16;;;;;;;15.43;11.88;;;;;;;7.50;70.81;99395.33;1729463;82;21187;-76
2021/04/22 03:10:45;;;;;;;15.18;11.22;;;;;;;7.44;70.96;99390.93;1724351;82;21163;-76
2021/04/22 03:13:13;;;;;;;14.38;11.80;;;;;;;7.43;70.99;99398.45;1720356;82;21176;-76
2021/04/22 03:15:42;;;;;;;14.75;11.18;;;;;;;7.53;70.79;99399.09;1757091;80;21123;-76
2021/04/22 03:18:12;;;;;;;15.60;11.88;;;;;;;7.50;70.86;99397.95;1772860;80;21167;-76
2021/04/22 03:20:39;;;;;;;15.53;11.70;;;;;;;7.43;71.05;99397.99;1751405;82;21481;-76
2021/04/22 03:23:08;;;;;;;13.43;11.12;;;;;;;7.38;71.21;99396.12;1751842;80;21147;-76
2021/04/22 03:25:35;;;;;;;14.15;11.78;;;;;;;7.46;71.13;99393.01;1754309;81;21171;-75
2021/04/22 03:28:03;;;;;;;14.07;11.25;;;;;;;7.55;70.94;99401.63;1770527;80;21179;-75
2021/04/22 03:30:32;;;;;;;16.50;12.20;;;;;;;7.52;70.99;99402.67;1715527;83;21322;-75
2021/04/22 03:32:59;;;;;;;14.28;10.75;;;;;;;7.50;71.07;99404.54;1766752;80;21124;-75
2021/04/22 03:35:27;;;;;;;16.40;11.20;;;;;;;7.53;71.03;99408.77;1753871;82;21254;-76
2021/04/22 03:37:55;;;;;;;17.98;11.88;;;;;;;7.70;70.71;99399.33;1752420;82;21147;-75
2021/04/22 03:40:24;;;;;;;15.60;11.50;;;;;;;7.76;70.62;99410.41;1754098;82;21179;-78
2021/04/22 03:42:54;;;;;;;16.52;12.43;;;;;;;7.74;70.70;99412.28;1754352;80;21310;-76
2021/04/22 03:45:22;;;;;;;15.05;11.20;;;;;;;7.77;70.73;99413.42;1689580;83;21593;-76
2021/04/22 03:47:50;;;;;;;13.55;10.78;;;;;;;8.00;70.40;99407.50;1690273;85;21604;-76
2021/04/22 03:50:17;;;;;;;16.15;11.78;;;;;;;8.42;69.63;99414.48;1751491;82;21167;-77
2021/04/22 03:52:47;;;;;;;14.40;11.25;;;;;;;8.68;69.00;99418.02;1753406;80;21176;-77
2021/04/22 03:55:16;;;;;;;15.50;11.68;;;;;;;8.91;68.42;99415.12;1753981;82;21128;-77
2021/04/22 03:57:43;;;;;;;17.37;11.83;;;;;;;9.17;67.73;99409.85;1761980;80;21671;-75
2021/04/22 04:00:14;;;;;;;20.40;11.10;;;;;;;9.44;67.05;99412.33;1698753;83;21184;-77
2021/04/22 04:02:41;;;;;;;23.95;10.53;;;;;;;9.73;66.30;99419.97;1769372;81;21286;-78
2021/04/22 04:05:10;;;;;;;14.35;10.93;;;;;;;10.15;65.25;99418.25;1692923;83;21155;-75
2021/04/22 04:07:37;;;;;;;15.38;11.00;;;;;;;10.45;64.36;99421.77;1782212;80;21758;-76
2021/04/22 04:10:07;;;;;;;18.27;12.00;;;;;;;10.65;63.75;99418.94;1782374;80;21635;-78
2021/04/22 04:12:35;;;;;;;15.28;11.50;;;;;;;10.83;63.13;99422.44;1715977;83;21152;-77
2021/04/22 04:15:04;;;;;;;16.27;11.70;;;;;;;10.98;62.62;99423.94;1695686;83;21183;-77
2021/04/22 04:17:31;;;;;;;15.05;11.85;;;;;;;11.13;62.26;99434.28;1695497;84;21184;-77
2021/04/22 04:20:05;;;;;;;16.17;11.97;;;;;;;11.37;61.65;99430.66;1720948;83;21181;-77
2021/04/22 04:22:33;;;;;;;19.23;11.80;;;;;;;11.66;61.02;99437.62;1721063;83;21165;-77
2021/04/22 04:25:00;;;;;;;16.73;11.50;;;;;;;11.94;60.25;99444.21;1721280;82;21198;-77
2021/04/22 04:27:27;;;;;;;17.98;11.95;;;;;;;12.18;59.56;99447.17;1720916;83;21187;-77
2021/04/22 04:29:54;;;;;;;19.02;11.45;;;;;;;12.12;59.24;99443.69;1722125;82;21600;-76
2021/04/22 04:32:21;;;;;;;14.65;11.40;;;;;;;11.87;59.43;99451.45;1723367;82;21191;-76
2021/04/22 04:34:48;;;;;;;16.73;11.80;;;;;;;11.68;59.84;99452.09;1722062;82;21152;-76
2021/04/22 04:37:16;;;;;;;21.45;12.85;;;;;;;11.86;60.00;99452.42;1722277;83;21170;-77
2021/04/22 04:39:43;;;;;;;21.15;12.13;;;;;;;12.24;59.35;99445.84;1720898;83;21893;-77
2021/04/22 04:42:11;;;;;;;18.07;11.60;;;;;;;12.58;58.50;99453.17;1729416;82;21298;-76
2021/04/22 04:44:39;;;;;;;17.45;11.12;;;;;;;12.94;57.82;99454.15;1722705;82;21207;-75
2021/04/22 04:47:06;;;;;;;14.85;11.28;;;;;;;13.23;57.13;99452.98;1697482;82;21345;-76
2021/04/22 04:49:34;;;;;;;24.27;11.95;;;;;;;13.48;56.33;99454.89;1722534;82;21172;-78
2021/04/22 04:54:33;;;;;;;15.58;11.90;;;;;;;13.97;54.95;99456.84;1786151;80;24265;-76
2021/04/22 04:57:00;;;;;;;15.30;11.40;;;;;;;14.13;54.31;99455.83;1757938;81;21122;-77
2021/04/22 04:59:30;;;;;;;15.85;10.70;;;;;;;14.21;53.77;99459.13;1755129;81;21175;-76
2021/04/22 05:01:58;;;;;;;14.85;10.58;;;;;;;14.13;53.50;99462.48;1759431;81;21360;-76
2021/04/22 05:04:25;;;;;;;13.83;11.12;;;;;;;13.86;53.72;99459.12;1755760;81;21151;-76
2021/04/22 05:06:52;;;;;;;22.93;12.03;;;;;;;13.86;53.89;99457.32;1754585;81;21752;-76
2021/04/22 05:09:21;;;;;;;13.65;10.15;;;;;;;14.08;53.76;99458.06;1748109;81;21178;-76
2021/04/22 05:11:48;;;;;;;16.97;11.25;;;;;;;14.38;53.46;99457.08;1751879;81;21155;-76
2021/04/22 05:14:15;;;;;;;15.00;11.30;;;;;;;14.42;52.96;99460.31;1748722;81;21210;-77
2021/04/22 05:16:42;;;;;;;20.72;11.30;;;;;;;14.42;52.96;99460.31;1725381;83;21182;-77
2021/04/22 05:19:10;;;;;;;12.80;10.95;;;;;;;14.45;53.05;99466.70;1744838;81;21165;-76
2021/04/22 05:21:38;;;;;;;18.57;11.30;;;;;;;14.49;53.00;99460.11;1747815;81;21736;-77
2021/04/22 05:24:06;;;;;;;15.38;12.20;;;;;;;14.31;53.06;99466.63;1753128;81;21169;-76
2021/04/22 05:26:33;;;;;;;15.35;12.53;;;;;;;14.05;53.39;99471.61;1756962;81;21479;-76
2021/04/22 05:29:01;;;;;;;18.62;13.78;;;;;;;13.80;54.07;99468.48;1761299;81;21614;-75
2021/04/22 05:31:29;;;;;;;17.87;11.78;;;;;;;13.64;54.42;99474.30;1754875;81;21138;-74
2021/04/22 05:33:56;;;;;;;16.27;11.05;;;;;;;13.48;54.71;99468.17;1755858;81;21185;-76
2021/04/22 05:36:24;;;;;;;15.88;11.35;;;;;;;13.38;55.03;99465.96;1747836;81;21550;-77
2021/04/22 05:38:51;;;;;;;19.25;11.50;;;;;;;13.39;55.33;99472.46;1760752;81;21637;-76
2021/04/22 05:41:19;;;;;;;20.82;12.53;;;;;;;13.47;55.37;99473.13;1728847;81;21260;-77
2021/04/22 05:43:46;;;;;;;14.58;12.18;;;;;;;13.55;55.49;99473.78;1691897;83;21332;-76
2021/04/22 05:46:14;;;;;;;19.23;13.68;;;;;;;13.58;55.32;99471.70;1679526;84;21647;-74
2021/04/22 05:48:41;;;;;;;20.92;11.90;;;;;;;13.63;55.47;99478.42;1679340;85;21169;-76
2021/04/22 05:51:09;;;;;;;17.27;12.10;;;;;;;13.71;55.21;99474.13;1679424;85;21208;-76
2021/04/22 05:53:36;;;;;;;16.42;12.65;;;;;;;13.81;54.99;99467.98;1676537;85;21379;-76
2021/04/22 05:56:05;;;;;;;16.87;13.05;;;;;;;13.86;54.84;99470.61;1669590;84;21166;-77
2021/04/22 05:58:32;;;;;;;28.67;16.10;;;;;;;13.90;54.43;99472.48;1690239;84;21198;-77
2021/04/22 06:00:59;;;;;;;17.57;11.95;;;;;;;13.86;54.38;99465.30;1673509;84;21211;-76
2021/04/22 06:03:26;;;;;;;19.67;11.73;;;;;;;13.81;54.28;99470.17;1688091;84;21158;-75
2021/04/22 06:05:54;;;;;;;24.32;12.75;;;;;;;13.78;54.42;99469.10;1669634;85;21220;-75
2021/04/22 06:08:21;;;;;;;15.32;11.33;;;;;;;13.83;54.66;99469.53;1667847;86;21571;-75
2021/04/22 06:10:48;;;;;;;17.40;12.37;;;;;;;13.91;54.22;99473.70;1668068;86;21361;-76
2021/04/22 06:13:15;;;;;;;24.60;12.30;;;;;;;13.97;54.48;99475.45;1667235;86;21611;-75
2021/04/22 06:15:43;;;;;;;20.52;12.53;;;;;;;14.04;54.50;99469.45;1667561;86;21329;-76
2021/04/22 06:18:10;;;;;;;122.47;19.05;;;;;;;14.11;54.40;99468.41;1672334;85;21187;-74
2021/04/22 06:20:37;;;;;;;21.77;12.65;;;;;;;14.16;53.98;99466.17;1689033;85;21166;-75
2021/04/22 06:23:06;;;;;;;16.17;12.13;;;;;;;14.16;53.56;99473.33;1677539;85;21786;-76
2021/04/22 06:25:33;;;;;;;14.55;10.93;;;;;;;14.15;53.78;99471.64;1682226;85;21514;-75
2021/04/22 06:28:01;;;;;;;19.98;11.85;;;;;;;14.14;53.94;99476.09;1681943;85;21159;-78
2021/04/22 06:30:29;;;;;;;16.37;10.65;;;;;;;14.13;53.69;99470.92;1679502;85;21702;-75
2021/04/22 06:32:56;;;;;;;14.55;10.98;;;;;;;14.07;53.51;99482.97;1672496;85;21171;-75
2021/04/22 06:35:24;;;;;;;14.33;12.05;;;;;;;14.06;54.16;99485.27;1667340;86;21733;-75
2021/04/22 06:37:51;;;;;;;18.25;13.43;;;;;;;14.11;54.43;99487.02;1668909;85;21228;-75
2021/04/22 06:40:21;;;;;;;14.85;11.83;;;;;;;14.20;54.47;99481.38;1694993;85;21329;-75
2021/04/22 06:42:51;;;;;;;;;;;;;;;14.34;53.87;99480.13;1697806;84;21336;-76
2021/04/22 06:45:19;;;;;;;37.28;13.43;;;;;;;14.43;53.94;99489.93;1678883;85;20178;-76
2021/04/22 06:47:47;;;;;;;15.13;10.40;;;;;;;14.50;53.90;99479.56;1667364;86;21842;-76
2021/04/22 06:50:20;;;;;;;36.10;11.70;;;;;;;14.61;52.98;99487.41;1674586;85;21766;-75
2021/04/22 06:52:48;;;;;;;22.98;11.78;;;;;;;14.66;52.50;99485.70;1687934;85;21324;-74
2021/04/22 06:55:19;;;;;;;25.32;12.10;;;;;;;14.70;52.53;99491.08;1664597;85;21635;-74
2021/04/22 06:57:49;;;;;;;26.87;11.50;;;;;;;14.74;52.96;99496.47;1688871;85;21203;-74
2021/04/22 07:00:20;;;;;;;16.97;11.35;;;;;;;14.80;52.46;99491.91;1678563;85;21231;-76
2021/04/22 07:02:49;;;;;;;14.50;11.05;;;;;;;14.81;52.42;99490.08;1667054;86;21195;-76
2021/04/22 07:05:17;;;;;;;15.80;11.70;;;;;;;14.84;52.70;99489.31;1666930;86;21336;-76
2021/04/22 07:07:45;;;;;;;13.43;10.60;;;;;;;14.96;52.58;99481.17;1680944;85;21162;-76
2021/04/22 07:10:14;;;;;;;13.13;10.58;;;;;;;15.08;51.93;99480.86;1673920;85;21207;-77
2021/04/22 07:12:43;;;;;;;12.10;9.65;;;;;;;15.18;51.80;99484.84;1671885;85;21172;-77
2021/04/22 07:15:13;;;;;;;15.75;10.48;;;;;;;15.26;51.26;99483.30;1616516;88;21219;-73
2021/04/22 07:17:42;;;;;;;15.18;11.08;;;;;;;15.22;51.17;99479.57;1669522;85;21196;-75
2021/04/22 07:20:14;;;;;;;14.50;9.90;;;;;;;15.24;51.66;99481.61;1667211;86;21191;-75
2021/04/22 07:22:44;;;;;;;13.83;9.65;;;;;;;15.34;51.38;99475.41;1635706;87;21374;-75
2021/04/22 07:25:12;;;;;;;19.77;9.80;;;;;;;15.50;51.47;99476.95;1644043;87;21194;-76
2021/04/22 07:27:40;;;;;;;18.52;9.28;;;;;;;15.73;51.08;99476.59;1644207;87;21186;-76
2021/04/22 07:30:10;;;;;;;12.60;9.90;;;;;;;15.97;50.21;99475.20;1644083;87;21158;-76
2021/04/22 07:32:38;;;;;;;12.85;9.10;;;;;;;16.17;49.83;99480.76;1643870;87;21242;-81
2021/04/22 07:35:08;;;;;;;15.95;9.38;;;;;;;16.35;49.03;99477.27;1644044;87;21838;-76
2021/04/22 07:37:36;;;;;;;11.33;8.58;;;;;;;16.52;48.81;99474.25;1653512;86;21307;-76
2021/04/22 07:40:06;;;;;;;14.23;9.43;;;;;;;16.67;48.40;99481.23;1651472;86;21205;-75
2021/04/22 07:42:34;;;;;;;13.55;8.70;;;;;;;16.79;48.05;99469.33;1668904;85;21747;-75
2021/04/22 07:45:03;;;;;;;22.82;9.73;;;;;;;16.93;48.20;99467.10;1659898;86;21240;-74
2021/04/22 07:47:31;;;;;;;14.43;8.88;;;;;;;17.08;47.76;99462.86;1669863;85;21600;-74
2021/04/22 07:49:59;;;;;;;15.28;8.68;;;;;;;17.22;47.76;99463.30;1668209;85;21175;-74
2021/04/22 07:52:27;;;;;;;9.58;7.80;;;;;;;17.37;47.05;99465.72;1661646;85;21240;-74
2021/04/22 07:54:55;;;;;;;10.58;8.18;;;;;;;17.50;46.02;99467.44;1628205;87;21630;-75
2021/04/22 07:57:22;;;;;;;16.37;8.35;;;;;;;17.60;46.23;99469.17;1676681;85;21185;-76
2021/04/22 07:59:50;;;;;;;24.50;7.92;;;;;;;17.72;46.00;99467.87;1683824;85;21208;-76
2021/04/22 08:02:19;;;;;;;12.28;7.70;;;;;;;17.83;46.16;99474.27;1680374;85;21287;-77
2021/04/22 08:04:48;;;;;;;14.98;8.48;;;;;;;17.92;44.84;99472.97;1683735;85;21275;-76
2021/04/22 08:07:15;;;;;;;16.10;7.62;;;;;;;17.92;44.45;99474.31;1685986;85;21173;-76
2021/04/22 08:09:43;;;;;;;26.52;8.95;;;;;;;17.97;43.70;99473.36;1683948;85;21212;-74
2021/04/22 08:12:10;;;;;;;29.55;8.25;;;;;;;17.99;43.05;99465.50;1686257;85;21776;-74
2021/04/22 08:14:38;;;;;;;11.00;7.70;;;;;;;17.93;43.23;99471.95;1683938;85;21366;-73
2021/04/22 08:17:05;;;;;;;15.40;7.25;;;;;;;17.85;43.43;99473.62;1686391;85;21560;-74
2021/04/22 08:19:33;;;;;;;52.48;10.30;;;;;;;17.82;43.18;99484.63;1683916;85;21618;-74
2021/04/22 08:22:00;;;;;;;16.30;6.72;;;;;;;17.82;42.98;99473.09;1686391;85;21229;-74
2021/04/22 08:24:30;;;;;;;15.45;7.42;;;;;;;17.88;42.88;99480.48;1684028;85;21208;-76
2021/04/22 08:26:57;;;;;;;11.33;6.97;;;;;;;17.92;43.47;99472.97;1686213;85;21200;-76
2021/04/22 08:29:25;;;;;;;34.00;8.75;;;;;;;18.00;43.21;99467.66;1684263;85;21177;-77
2021/04/22 08:31:52;;;;;;;12.18;7.20;;;;;;;18.07;42.73;99470.03;1686394;85;21208;-77
2021/04/22 08:34:19;;;;;;;12.80;6.70;;;;;;;18.10;42.65;99467.02;1684134;85;21173;-77
2021/04/22 08:36:47;;;;;;;9.55;7.33;;;;;;;18.09;43.36;99465.34;1686425;85;21185;-75
2021/04/22 08:39:16;;;;;;;11.78;7.83;;;;;;;18.10;43.25;99468.88;1683910;85;21205;-75
2021/04/22 08:41:43;;;;;;;13.78;7.55;;;;;;;18.08;43.64;99459.67;1686419;85;21757;-75
2021/04/22 08:44:10;;;;;;;15.28;8.70;;;;;;;18.11;43.20;99462.02;1684144;85;21173;-75
2021/04/22 08:46:39;;;;;;;16.30;7.42;;;;;;;18.16;43.23;99458.34;1686141;85;21380;-76
2021/04/22 08:49:07;;;;;;;13.88;6.78;;;;;;;18.14;42.45;99461.67;1684096;85;21185;-75
2021/04/22 08:51:35;;;;;;;28.05;8.48;;;;;;;18.06;42.39;99464.34;1686241;85;21204;-75
2021/04/22 08:54:04;;;;;;;25.43;7.55;;;;;;;17.98;41.28;99460.29;1675918;85;21229;-76
2021/04/22 08:56:34;;;;;;;10.13;6.47;;;;;;;17.92;41.58;99451.58;1660056;86;21198;-76
2021/04/22 08:59:02;;;;;;;22.50;7.22;;;;;;;17.96;41.50;99462.31;1633305;88;21219;-76
2021/04/22 09:01:32;;;;;;;11.93;6.75;;;;;;;18.06;42.03;99454.16;1647546;87;21221;-76
2021/04/22 09:04:05;;;;;;;22.13;6.40;;;;;;;18.16;41.38;99447.64;1659631;86;21892;-75
2021/04/22 09:06:35;;;;;;;8.18;5.70;;;;;;;18.20;41.48;99451.31;1659752;86;21216;-76
2021/04/22 09:09:06;;;;;;;39.18;9.15;;;;;;;18.31;42.39;99448.31;1660091;86;21207;-76
2021/04/22 09:11:44;;;;;;;9.38;6.65;;;;;;;18.45;42.32;99445.01;1659953;86;21203;-74
2021/04/22 09:14:14;;;;;;;20.62;6.17;;;;;;;18.57;42.14;99445.98;1659676;86;21219;-75
2021/04/22 09:16:42;;;;;;;23.20;6.20;;;;;;;18.65;40.20;99448.68;1659848;86;21343;-76
2021/04/22 09:19:13;;;;;;;43.75;8.48;;;;;;;18.73;39.09;99437.13;1660103;86;21152;-75
2021/04/22 09:21:45;;;;;;;12.28;5.47;;;;;;;18.74;39.10;99443.65;1659885;86;21171;-76
2021/04/22 09:24:19;;;;;;;23.37;7.30;;;;;;;18.71;38.17;99451.17;1660286;86;21337;-76
2021/04/22 09:26:52;;;;;;;21.45;6.55;;;;;;;18.55;38.23;99434.63;1660090;86;21195;-76
2021/04/22 09:29:33;;;;;;;12.47;5.65;;;;;;;18.37;38.82;99445.50;1660090;86;21298;-76
2021/04/22 09:32:18;;;;;;;20.80;6.90;;;;;;;18.25;39.12;99439.61;1660055;85;21228;-76
2021/04/22 09:34:56;;;;;;;13.48;6.65;;;;;;;18.32;39.27;99432.59;1659975;86;21199;-76
2021/04/22 09:37:38;;;;;;;15.05;6.03;;;;;;;18.50;39.83;99432.44;1660306;85;21547;-75
2021/04/22 09:40:31;;;;;;;10.75;7.10;;;;;;;18.67;39.98;99431.95;1660191;86;21699;-75
2021/04/22 09:43:01;;;;;;;8.95;5.85;;;;;;;18.78;39.21;99426.73;1660365;86;21207;-75
2021/04/22 09:45:31;;;;;;;9.23;6.20;;;;;;;18.76;39.41;99430.94;1653969;85;21579;-75
2021/04/22 09:48:03;;;;;;;19.32;6.80;;;;;;;18.71;40.15;99425.25;1671504;84;21219;-76
2021/04/22 09:50:31;;;;;;;8.38;6.08;;;;;;;18.64;40.85;99424.23;1670117;86;21583;-76
2021/04/22 09:52:59;;;;;;;9.10;7.08;;;;;;;18.56;40.79;99426.94;1634852;87;21215;-76
2021/04/22 09:55:29;;;;;;;9.80;7.95;;;;;;;18.49;41.49;99420.05;1627239;85;21214;-75
2021/04/22 09:57:56;;;;;;;10.58;6.53;;;;;;;18.46;41.87;99413.19;1672818;86;21195;-75
2021/04/22 10:00:28;;;;;;;21.87;7.80;;;;;;;18.45;41.48;99420.91;1651235;85;21179;-74
2021/04/22 10:02:58;;;;;;;14.05;6.28;;;;;;;18.40;41.25;99417.90;1686054;85;21159;-76
2021/04/22 10:05:32;;;;;;;11.50;6.25;;;;;;;18.27;40.81;99417.02;1686401;85;21352;-75
2021/04/22 10:08:14;;;;;;;18.60;7.35;;;;;;;18.11;41.20;99420.53;1686371;85;21244;-75
2021/04/22 10:11:05;;;;;;;10.63;7.12;;;;;;;17.95;42.03;99425.85;1686372;83;21156;-76
2021/04/22 10:13:48;;;;;;;7.55;6.15;;;;;;;17.77;43.21;99422.76;1686076;84;21211;-75
2021/04/22 10:16:22;;;;;;;9.43;6.62;;;;;;;17.53;44.91;99424.36;1686484;85;21160;-75
2021/04/22 10:18:49;;;;;;;8.23;6.08;;;;;;;17.28;45.95;99426.08;1684929;85;21754;-76
2021/04/22 10:21:17;;;;;;;7.78;6.12;;;;;;;17.10;46.43;99418.14;1686178;85;21187;-75
2021/04/22 10:23:47;;;;;;;9.03;6.67;;;;;;;16.99;47.20;99425.91;1686136;85;21211;-75
2021/04/22 10:26:20;;;;;;;8.78;5.70;;;;;;;16.94;46.99;99421.53;1686370;85;21191;-75
2021/04/22 10:28:47;;;;;;;7.60;4.50;;;;;;;16.92;45.75;99434.23;1686234;85;21314;-75
2021/04/22 10:31:15;;;;;;;8.75;4.60;;;;;;;16.93;43.81;99425.70;1686480;85;21199;-74
2021/04/22 10:33:42;;;;;;;19.57;5.70;;;;;;;16.97;43.74;99425.72;1686200;85;21212;-75
2021/04/22 10:36:12;;;;;;;8.28;5.67;;;;;;;17.05;43.95;99428.46;1686229;85;21341;-75
2021/04/22 10:38:41;;;;;;;7.72;6.00;;;;;;;17.23;44.27;99418.22;1686160;85;21538;-76
2021/04/22 10:41:09;;;;;;;8.98;6.53;;;;;;;17.38;44.87;99417.09;1686299;85;21351;-75
2021/04/22 10:43:38;;;;;;;16.02;5.87;;;;;;;17.37;44.52;99421.61;1686226;85;21163;-76
2021/04/22 10:46:05;;;;;;;11.88;4.97;;;;;;;17.30;44.91;99453.97;1677018;85;21801;-74
2021/04/22 10:48:33;;;;;;;7.33;6.03;;;;;;;17.13;47.35;99473.92;1658590;85;21171;-75
2021/04/22 10:51:00;;;;;;;8.00;6.22;;;;;;;16.72;47.54;99452.23;1653944;86;21208;-74
2021/04/22 10:53:28;;;;;;;6.92;6.00;;;;;;;16.32;49.53;99430.89;1635329;86;21231;-76
2021/04/22 10:55:55;;;;;;;9.65;6.40;;;;;;;16.06;51.17;99427.63;1640280;86;21277;-74
2021/04/22 10:58:45;;;;;;;7.53;6.40;;;;;;;15.92;51.55;99422.81;1644114;87;21595;-74
2021/04/22 11:01:14;;;;;;;7.90;6.03;;;;;;;15.85;52.17;99424.74;1669969;85;21195;-74
2021/04/22 11:03:46;;;;;;;9.98;7.47;;;;;;;15.82;52.04;99424.20;1678983;85;21192;-75
2021/04/22 11:06:19;;;;;;;11.35;7.80;;;;;;;15.81;52.35;99424.70;1695075;85;21710;-74
2021/04/22 11:08:54;;;;;;;12.82;7.95;;;;;;;15.82;53.27;99430.39;1692814;85;21305;-74
2021/04/22 11:11:34;;;;;;;13.48;6.97;;;;;;;15.81;54.02;99430.05;1695301;85;21632;-75
2021/04/22 11:14:11;;;;;;;10.30;8.10;;;;;;;15.78;55.02;99424.13;1695205;84;21166;-74
2021/04/22 11:16:43;;;;;;;8.68;7.42;;;;;;;15.82;55.72;99421.06;1695641;84;21536;-77
2021/04/22 11:19:52;;;;;;;14.58;10.53;;;;;;;15.98;56.11;99410.22;1665088;84;21169;-75
2021/04/22 11:22:25;;;;;;;8.93;7.03;;;;;;;16.14;55.70;99412.19;1673204;86;21637;-76
2021/04/22 11:24:59;;;;;;;6.55;5.85;;;;;;;16.25;53.54;99417.81;1670470;86;21260;-76
2021/04/22 11:27:31;;;;;;;9.45;6.90;;;;;;;16.23;52.60;99403.30;1636941;87;21222;-76
2021/04/22 11:30:02;;;;;;;7.20;6.03;;;;;;;16.16;52.75;99407.08;1628387;87;21214;-77
2021/04/22 11:32:33;;;;;;;9.15;7.03;;;;;;;16.12;52.53;99405.69;1663008;86;21727;-75
2021/04/22 11:35:17;;;;;;;8.65;5.97;;;;;;;16.13;53.79;99398.03;1664477;86;21191;-75
2021/04/22 11:37:47;;;;;;;9.90;5.92;;;;;;;16.18;54.30;99398.41;1608383;89;21701;-75